Time;durP1;ratioP1;P1;durP2;ratioP2;P2;SDS_P1;SDS_P2;PMS_P1;PMS_P2;Temp;Humidity;BMP_temperature;BMP_pressure;BME280_temperature;BME280_humidity;BME280_pressure;Samples;Min_cycle;Max_cycle;Signal;HPM_P1;HPM_P2
2022/07/31 00:01:43;;;;;;;6.10;2.67;;;640.40;2432.00;;;;;;4995782;28;20029;-80
2022/07/31 00:04:09;;;;;;;5.45;3.22;;;640.50;2432.00;;;;;;4996067;28;20053;-81
2022/07/31 00:06:35;;;;;;;5.70;3.30;;;640.40;2432.00;;;;;;4995724;28;20057;-80
2022/07/31 00:09:01;;;;;;;6.68;3.10;;;640.40;2432.00;;;;;;4995761;28;20065;-80
2022/07/31 00:11:26;;;;;;;4.28;3.17;;;640.40;2432.00;;;;;;4977202;28;20092;-81
2022/07/31 00:13:52;;;;;;;8.32;3.00;;;640.40;2432.00;;;;;;4995405;28;20032;-80
2022/07/31 00:16:18;;;;;;;4.30;2.83;;;640.20;2432.00;;;;;;4978161;28;20022;-78
2022/07/31 00:18:43;;;;;;;4.13;2.50;;;640.20;2432.00;;;;;;4977948;28;20496;-78
2022/07/31 00:21:09;;;;;;;4.22;2.53;;;640.00;2432.00;;;;;;4995399;28;20034;-79
2022/07/31 00:23:35;;;;;;;5.95;2.33;;;640.00;2432.00;;;;;;4977948;28;20037;-79
2022/07/31 00:26:00;;;;;;;3.58;2.90;;;640.00;2432.00;;;;;;4977738;28;20035;-80
2022/07/31 00:28:26;;;;;;;4.05;2.75;;;640.00;2432.00;;;;;;4977480;28;20030;-79
2022/07/31 00:30:52;;;;;;;4.55;3.00;;;615.30;2432.00;;;;;;4995293;28;20026;-78
2022/07/31 00:33:18;;;;;;;6.13;2.70;;;615.30;2432.00;;;;;;4977687;28;20104;-80
2022/07/31 00:35:44;;;;;;;4.75;2.63;;;615.10;2432.00;;;;;;4977420;28;20041;-79
2022/07/31 00:38:10;;;;;;;5.93;3.40;;;615.20;2432.00;;;;;;4975238;28;20034;-81
2022/07/31 00:40:36;;;;;;;4.80;3.42;;;615.30;2432.00;;;;;;4958361;28;20054;-80
2022/07/31 00:43:01;;;;;;;4.90;2.90;;;615.30;2432.00;;;;;;4957862;28;20408;-77
2022/07/31 00:45:27;;;;;;;5.53;3.45;;;615.30;2432.00;;;;;;4975326;28;20038;-78
2022/07/31 00:47:53;;;;;;;6.30;3.20;;;615.00;2432.00;;;;;;4979142;28;20086;-80
2022/07/31 00:50:19;;;;;;;7.07;3.50;;;615.00;2432.00;;;;;;4976904;28;20484;-77
2022/07/31 00:52:44;;;;;;;5.20;3.30;;;615.00;2432.00;;;;;;4977248;28;20496;-78
2022/07/31 00:55:10;;;;;;;5.60;3.03;;;615.00;2432.00;;;;;;4994899;28;20026;-79
2022/07/31 00:57:36;;;;;;;5.20;2.95;;;614.90;2432.00;;;;;;4994781;28;20387;-79
2022/07/31 01:00:04;;;;;;;7.68;3.45;;;614.90;2432.00;;;;;;4977269;28;20076;-79
2022/07/31 01:02:29;;;;;;;4.20;2.90;;;615.00;2432.00;;;;;;4976847;28;20031;-81
2022/07/31 01:04:55;;;;;;;6.55;3.05;;;614.80;2432.00;;;;;;4977272;28;20398;-80
2022/07/31 01:07:21;;;;;;;4.82;3.15;;;614.80;2432.00;;;;;;4977278;28;20030;-81
2022/07/31 01:09:48;;;;;;;4.78;3.20;;;614.80;2432.00;;;;;;4977014;28;20062;-80
2022/07/31 01:12:24;;;;;;;5.85;3.20;;;614.70;2432.00;;;;;;4976994;28;20022;-80
2022/07/31 01:14:55;;;;;;;6.18;3.63;;;614.70;2432.00;;;;;;4976959;28;20419;-80
2022/07/31 01:17:24;;;;;;;5.15;3.33;;;614.70;2432.00;;;;;;4976931;28;20452;-78
2022/07/31 01:19:51;;;;;;;4.50;3.17;;;614.50;2432.00;;;;;;4994227;28;20026;-77
2022/07/31 01:22:33;;;;;;;4.47;3.50;;;614.50;2432.00;;;;;;4976516;28;20399;-76
2022/07/31 01:25:05;;;;;;;5.05;3.80;;;614.50;2432.00;;;;;;4994370;28;20563;-78
2022/07/31 01:27:52;;;;;;;5.57;3.38;;;614.50;2432.00;;;;;;4994076;28;20029;-78
2022/07/31 01:30:22;;;;;;;5.78;3.67;;;614.50;2432.00;;;;;;4994094;28;20027;-77
2022/07/31 01:32:52;;;;;;;5.55;3.20;;;614.40;2432.00;;;;;;4994129;28;20022;-79
2022/07/31 01:35:31;;;;;;;7.88;4.05;;;589.70;2432.00;;;;;;4976709;28;20532;-79
2022/07/31 01:38:35;;;;;;;9.20;3.88;;;614.50;2432.00;;;;;;4993772;28;20071;-79
2022/07/31 01:41:06;;;;;;;5.63;3.65;;;614.40;2432.00;;;;;;4993412;28;20042;-77
2022/07/31 01:43:36;;;;;;;4.38;3.35;;;589.60;2432.00;;;;;;4993761;28;20045;-79
2022/07/31 01:46:03;;;;;;;12.40;4.03;;;589.70;2432.00;;;;;;4994100;28;20046;-80
2022/07/31 01:48:32;;;;;;;6.93;3.65;;;589.60;2432.00;;;;;;4992979;28;20033;-78
2022/07/31 01:51:01;;;;;;;4.15;3.20;;;589.60;2432.00;;;;;;4975877;28;20042;-80
2022/07/31 01:53:31;;;;;;;5.95;3.78;;;589.60;2432.00;;;;;;4993642;28;20073;-84
2022/07/31 01:55:58;;;;;;;6.40;3.58;;;589.50;2432.00;;;;;;4992456;28;20073;-79
2022/07/31 01:58:25;;;;;;;7.72;3.70;;;589.50;2432.00;;;;;;4991111;28;20066;-79
2022/07/31 02:01:02;;;;;;;7.45;4.07;;;589.40;2432.00;;;;;;4975639;28;20027;-80
2022/07/31 02:03:32;;;;;;;4.95;3.75;;;589.30;2432.00;;;;;;4975638;28;20430;-79
2022/07/31 02:06:02;;;;;;;6.85;3.80;;;589.40;2432.00;;;;;;4975862;28;20035;-81
2022/07/31 02:08:33;;;;;;;5.75;4.03;;;589.40;2432.00;;;;;;4975224;28;20019;-78
2022/07/31 02:11:02;;;;;;;8.25;4.57;;;589.40;2432.00;;;;;;4975235;28;20405;-79
2022/07/31 02:13:30;;;;;;;5.05;3.65;;;589.40;2432.00;;;;;;4974847;28;20054;-80
2022/07/31 02:16:00;;;;;;;6.20;3.70;;;589.40;2432.00;;;;;;4974664;28;20062;-79
2022/07/31 02:18:26;;;;;;;8.07;3.80;;;589.40;2432.00;;;;;;4992636;28;20121;-78
2022/07/31 02:20:55;;;;;;;5.57;3.70;;;589.40;2432.00;;;;;;4992952;28;20034;-79
2022/07/31 02:23:21;;;;;;;8.30;4.43;;;589.30;2432.00;;;;;;4988559;28;20029;-79
2022/07/31 02:25:47;;;;;;;7.20;4.05;;;589.30;2432.00;;;;;;4975488;28;20018;-80
2022/07/31 02:28:19;;;;;;;5.25;3.85;;;589.20;2432.00;;;;;;4975592;28;20039;-79
2022/07/31 02:30:47;;;;;;;5.32;4.07;;;589.30;2432.00;;;;;;4992607;28;20057;-80
2022/07/31 02:33:20;;;;;;;5.05;3.70;;;589.30;2432.00;;;;;;4975322;28;20518;-78
2022/07/31 02:35:48;;;;;;;6.45;3.92;;;589.20;2432.00;;;;;;4996240;28;20475;-79
2022/07/31 02:38:17;;;;;;;5.68;4.65;;;589.30;2432.00;;;;;;4978981;28;20030;-79
2022/07/31 02:40:44;;;;;;;6.07;3.92;;;589.30;2432.00;;;;;;4996335;28;20042;-79
2022/07/31 02:43:11;;;;;;;6.38;3.75;;;589.20;2432.00;;;;;;4995540;28;20030;-77
2022/07/31 02:45:37;;;;;;;8.13;4.53;;;589.30;2432.00;;;;;;4994384;28;20440;-77
2022/07/31 02:48:04;;;;;;;7.00;4.38;;;589.20;2432.00;;;;;;4978766;28;20126;-77
2022/07/31 02:50:30;;;;;;;7.55;3.90;;;589.10;2432.00;;;;;;4995841;28;20057;-78
2022/07/31 02:52:57;;;;;;;6.95;4.60;;;589.10;2432.00;;;;;;4978809;28;20030;-79
2022/07/31 02:55:23;;;;;;;7.95;4.88;;;589.10;2432.00;;;;;;4996387;28;20031;-78
2022/07/31 02:57:52;;;;;;;5.78;3.92;;;589.10;2432.00;;;;;;4978593;28;20129;-77
2022/07/31 03:00:22;;;;;;;8.18;4.65;;;589.00;2432.00;;;;;;4996407;28;20088;-81
2022/07/31 03:02:52;;;;;;;6.55;4.50;;;589.00;2432.00;;;;;;4997041;28;20484;-79
2022/07/31 03:05:18;;;;;;;7.75;4.85;;;589.00;2432.00;;;;;;4979820;28;20031;-79
2022/07/31 03:07:44;;;;;;;6.30;4.15;;;588.90;2432.00;;;;;;4997070;28;20035;-80
2022/07/31 03:10:11;;;;;;;6.20;4.78;;;588.90;2432.00;;;;;;4979356;28;20033;-80
2022/07/31 03:12:40;;;;;;;9.43;4.97;;;589.00;2432.00;;;;;;4995522;28;20084;-80
2022/07/31 03:15:12;;;;;;;6.05;4.53;;;588.90;2432.00;;;;;;4996899;28;20033;-80
2022/07/31 03:17:40;;;;;;;6.40;4.50;;;588.90;2432.00;;;;;;4996768;28;20030;-79
2022/07/31 03:20:08;;;;;;;6.13;4.65;;;589.00;2432.00;;;;;;4979048;28;20068;-79
2022/07/31 03:22:34;;;;;;;7.25;4.72;;;588.90;2432.00;;;;;;4996537;28;20030;-79
2022/07/31 03:25:01;;;;;;;7.38;4.72;;;588.80;2432.00;;;;;;4979076;28;20049;-80
2022/07/31 03:27:27;;;;;;;9.25;4.80;;;588.80;2432.00;;;;;;4978945;28;20113;-79
2022/07/31 03:29:55;;;;;;;6.00;4.60;;;588.80;2432.00;;;;;;4978423;28;20464;-80
2022/07/31 03:32:21;;;;;;;8.25;4.95;;;588.80;2432.00;;;;;;4978567;28;20042;-81
2022/07/31 03:34:47;;;;;;;6.43;4.85;;;588.80;2432.00;;;;;;4978973;28;20031;-80
2022/07/31 03:37:13;;;;;;;6.93;5.45;;;588.80;2432.00;;;;;;4995012;28;20034;-80
2022/07/31 03:39:39;;;;;;;6.65;4.95;;;564.10;2432.00;;;;;;4978619;28;20113;-80
2022/07/31 03:42:07;;;;;;;8.68;5.03;;;564.10;2432.00;;;;;;4978807;28;20034;-80
2022/07/31 03:44:35;;;;;;;5.32;4.60;;;588.80;2432.00;;;;;;4995880;28;20160;-79
2022/07/31 03:47:01;;;;;;;6.95;5.18;;;564.00;2432.00;;;;;;4978673;28;20031;-79
2022/07/31 03:49:27;;;;;;;7.82;4.95;;;564.00;2432.00;;;;;;4996039;28;20388;-78
2022/07/31 03:51:53;;;;;;;6.80;5.45;;;564.00;2432.00;;;;;;4978352;28;20030;-80
2022/07/31 03:54:19;;;;;;;9.50;5.15;;;563.80;2432.00;;;;;;4995872;28;20080;-79
2022/07/31 03:56:48;;;;;;;6.65;5.10;;;564.00;2432.00;;;;;;4978572;28;20023;-78
2022/07/31 03:59:15;;;;;;;8.52;5.40;;;564.10;2432.00;;;;;;4978255;28;20427;-79
2022/07/31 04:01:42;;;;;;;7.22;5.40;;;564.00;2432.00;;;;;;4977730;28;20049;-78
2022/07/31 04:04:09;;;;;;;7.75;5.07;;;564.10;2432.00;;;;;;4995774;28;20057;-79
2022/07/31 04:06:35;;;;;;;7.15;5.13;;;564.10;2432.00;;;;;;4995864;28;20027;-79
2022/07/31 04:09:00;;;;;;;9.32;5.47;;;564.00;2432.00;;;;;;4978365;28;20030;-79
2022/07/31 04:11:27;;;;;;;6.93;5.63;;;564.00;2432.00;;;;;;4995589;28;20385;-79
2022/07/31 04:13:53;;;;;;;11.70;5.35;;;564.00;2432.00;;;;;;4993881;28;20026;-77
2022/07/31 04:16:19;;;;;;;7.65;5.00;;;564.00;2432.00;;;;;;4995016;28;20498;-77
2022/07/31 04:18:45;;;;;;;7.47;5.65;;;564.00;2432.00;;;;;;4995458;28;20038;-77
2022/07/31 04:21:10;;;;;;;10.40;6.00;;;564.00;2432.00;;;;;;4995396;28;20057;-78
2022/07/31 04:23:36;;;;;;;9.77;5.90;;;564.00;2432.00;;;;;;4977806;28;20026;-76
2022/07/31 04:26:02;;;;;;;8.68;6.53;;;564.00;2432.00;;;;;;4995541;28;20029;-77
2022/07/31 04:28:28;;;;;;;7.93;5.75;;;564.10;2432.00;;;;;;4995173;28;20476;-80
2022/07/31 04:30:53;;;;;;;8.95;6.00;;;564.00;2432.00;;;;;;4994639;28;20549;-77
2022/07/31 04:33:19;;;;;;;9.63;6.65;;;564.00;2432.00;;;;;;4995235;28;20396;-77
2022/07/31 04:35:45;;;;;;;6.93;5.32;;;564.00;2432.00;;;;;;4977460;28;20026;-77
2022/07/31 04:38:11;;;;;;;8.45;5.30;;;564.10;2432.00;;;;;;4995381;28;20077;-81
2022/07/31 04:40:37;;;;;;;9.23;5.80;;;564.10;2432.00;;;;;;4994539;28;20129;-81
2022/07/31 04:43:03;;;;;;;7.20;5.45;;;588.80;2432.00;;;;;;4977873;28;20019;-81
2022/07/31 04:45:29;;;;;;;7.80;5.45;;;564.10;2432.00;;;;;;4977600;28;20030;-78
2022/07/31 04:47:55;;;;;;;8.38;4.85;;;588.80;2432.00;;;;;;4994410;28;20015;-78
2022/07/31 04:50:21;;;;;;;6.72;5.00;;;588.80;2432.00;;;;;;4977352;28;20041;-79
2022/07/31 04:52:46;;;;;;;7.05;5.10;;;564.00;2432.00;;;;;;4994770;28;20032;-77
2022/07/31 04:55:12;;;;;;;6.85;5.55;;;564.00;2432.00;;;;;;4995009;28;20023;-78
2022/07/31 04:57:38;;;;;;;6.03;4.95;;;563.90;2432.00;;;;;;4994026;28;20060;-78
2022/07/31 05:00:07;;;;;;;7.28;5.30;;;564.10;2432.00;;;;;;4993937;28;20056;-78
2022/07/31 05:02:33;;;;;;;7.25;4.78;;;564.10;2432.00;;;;;;4977236;28;20455;-78
2022/07/31 05:04:58;;;;;;;10.63;5.25;;;588.80;2432.00;;;;;;4994697;28;20094;-77
2022/07/31 05:07:25;;;;;;;7.18;4.50;;;588.80;2432.00;;;;;;4994646;28;20109;-77
2022/07/31 05:09:51;;;;;;;8.35;5.55;;;588.80;2432.00;;;;;;4994511;28;20019;-76
2022/07/31 05:12:16;;;;;;;7.20;4.40;;;588.80;2432.00;;;;;;4994354;28;20030;-76
2022/07/31 05:14:42;;;;;;;8.35;4.30;;;588.90;2432.00;;;;;;4994245;28;20029;-77
2022/07/31 05:17:08;;;;;;;9.82;4.63;;;589.00;2432.00;;;;;;4977033;28;20112;-75
2022/07/31 05:19:33;;;;;;;5.85;4.50;;;589.10;2432.00;;;;;;4994352;28;20030;-76
2022/07/31 05:21:59;;;;;;;6.57;4.55;;;589.10;2432.00;;;;;;4994153;28;20035;-77
2022/07/31 05:24:25;;;;;;;8.63;4.13;;;589.10;2432.00;;;;;;4994440;28;20030;-78
2022/07/31 05:26:51;;;;;;;11.57;4.63;;;589.20;2432.00;;;;;;4994343;28;20022;-78
2022/07/31 05:29:17;;;;;;;10.95;4.55;;;589.30;2432.00;;;;;;4994379;28;20558;-78
2022/07/31 05:31:43;;;;;;;6.15;4.47;;;589.40;2432.00;;;;;;4994186;28;20065;-77
2022/07/31 05:34:09;;;;;;;6.00;4.03;;;589.40;2432.00;;;;;;4997855;28;20049;-78
2022/07/31 05:36:35;;;;;;;6.05;3.60;;;589.50;2432.00;;;;;;4986832;28;20018;-82
2022/07/31 05:39:00;;;;;;;5.28;4.15;;;589.60;2432.00;;;;;;4996765;28;20037;-81
2022/07/31 05:41:28;;;;;;;5.90;3.90;;;589.70;2432.00;;;;;;5004454;28;20049;-78
2022/07/31 05:43:54;;;;;;;6.50;3.80;;;589.70;2432.00;;;;;;4987099;28;20048;-80
2022/07/31 05:46:20;;;;;;;6.45;3.58;;;589.70;2432.00;;;;;;5007659;28;20018;-78
2022/07/31 05:48:45;;;;;;;6.20;4.50;;;589.70;2432.00;;;;;;4976609;28;20446;-81
2022/07/31 05:51:13;;;;;;;5.00;3.58;;;589.70;2432.00;;;;;;4993760;28;20447;-82
2022/07/31 05:53:39;;;;;;;4.57;3.53;;;614.50;2432.00;;;;;;4993964;28;20101;-77
2022/07/31 05:56:05;;;;;;;5.45;3.90;;;614.60;2432.00;;;;;;4993763;28;20105;-78
2022/07/31 05:58:32;;;;;;;5.90;3.72;;;614.60;2432.00;;;;;;4993862;28;20053;-78
2022/07/31 06:00:59;;;;;;;6.80;3.67;;;589.70;2432.00;;;;;;4976255;28;20064;-76
2022/07/31 06:03:28;;;;;;;5.30;3.58;;;614.60;2432.00;;;;;;4979763;28;20030;-77
2022/07/31 06:05:55;;;;;;;4.97;3.53;;;614.80;2432.00;;;;;;4993988;28;20014;-77
2022/07/31 06:08:21;;;;;;;4.45;3.50;;;614.80;2432.00;;;;;;5004638;28;20071;-77
2022/07/31 06:10:47;;;;;;;5.97;3.25;;;614.90;2432.00;;;;;;5003732;28;20022;-77
2022/07/31 06:13:13;;;;;;;4.40;3.22;;;614.90;2432.00;;;;;;5013329;28;20586;-76
2022/07/31 06:15:40;;;;;;;5.50;3.67;;;615.00;2432.00;;;;;;4997578;28;20015;-78
2022/07/31 06:18:06;;;;;;;4.10;2.92;;;615.10;2432.00;;;;;;4997677;28;20035;-77
2022/07/31 06:20:32;;;;;;;4.10;3.10;;;615.10;2432.00;;;;;;4997422;28;20026;-77
2022/07/31 06:22:58;;;;;;;5.45;3.65;;;615.20;2432.00;;;;;;4997653;28;20029;-77
2022/07/31 06:25:24;;;;;;;5.38;3.42;;;615.10;2432.00;;;;;;4997527;28;20384;-77
2022/07/31 06:27:50;;;;;;;6.90;4.65;;;615.10;2432.00;;;;;;4980122;28;20034;-78
2022/07/31 06:30:16;;;;;;;4.88;3.63;;;615.20;2432.00;;;;;;4997325;28;20033;-78
2022/07/31 06:32:42;;;;;;;6.70;4.65;;;615.30;2432.00;;;;;;4997450;28;20464;-78
2022/07/31 06:35:09;;;;;;;4.40;3.17;;;640.00;2432.00;;;;;;4997601;28;20102;-80
2022/07/31 06:37:35;;;;;;;4.10;3.20;;;640.10;2432.00;;;;;;4997501;28;20073;-77
2022/07/31 06:40:00;;;;;;;5.40;2.88;;;640.20;2380.80;;;;;;4979897;28;20062;-82
2022/07/31 06:42:26;;;;;;;5.28;3.05;;;640.30;2380.80;;;;;;4997390;28;20030;-79
2022/07/31 06:44:53;;;;;;;5.00;3.35;;;640.40;2380.80;;;;;;4979744;28;20419;-78
2022/07/31 06:47:21;;;;;;;4.68;3.25;;;640.40;2432.00;;;;;;4996677;28;20168;-80
2022/07/31 06:49:47;;;;;;;4.40;3.22;;;640.40;2432.00;;;;;;4994790;28;20549;-78
2022/07/31 06:52:12;;;;;;;5.68;3.50;;;640.30;2432.00;;;;;;4979566;28;20121;-82
2022/07/31 06:54:38;;;;;;;4.15;3.22;;;640.50;2432.00;;;;;;4997277;28;20033;-79
2022/07/31 06:57:04;;;;;;;4.50;2.85;;;640.60;2355.20;;;;;;4997015;28;20030;-80
2022/07/31 06:59:30;;;;;;;4.82;3.45;;;640.60;2329.60;;;;;;4979613;28;20029;-80
2022/07/31 07:01:55;;;;;;;4.90;3.17;;;640.70;2252.80;;;;;;4996950;28;20582;-81
2022/07/31 07:04:21;;;;;;;4.72;2.97;;;640.90;2252.80;;;;;;4996763;28;20042;-81
2022/07/31 07:06:47;;;;;;;4.75;3.22;;;665.60;2278.40;;;;;;5005552;28;20022;-82
2022/07/31 07:09:13;;;;;;;4.07;3.17;;;665.60;2252.80;;;;;;5006143;28;20025;-78
2022/07/31 07:11:39;;;;;;;5.22;3.70;;;665.60;2201.60;;;;;;4999318;28;20030;-79
2022/07/31 07:14:05;;;;;;;5.40;3.47;;;665.60;2201.60;;;;;;4979052;28;20080;-78
2022/07/31 07:16:31;;;;;;;5.68;4.13;;;665.90;2201.60;;;;;;4996541;28;20050;-82
2022/07/31 07:18:57;;;;;;;4.55;3.15;;;665.70;2150.40;;;;;;4996468;28;20500;-77
2022/07/31 07:21:23;;;;;;;4.55;3.08;;;665.80;2150.40;;;;;;4996499;28;20455;-77
2022/07/31 07:23:48;;;;;;;4.88;3.17;;;665.90;2073.60;;;;;;4996383;28;20031;-77
2022/07/31 07:26:14;;;;;;;7.90;3.53;;;666.10;1996.80;;;;;;4996506;28;20022;-77
2022/07/31 07:28:40;;;;;;;5.05;3.28;;;666.20;1996.80;;;;;;4996233;28;20030;-77
2022/07/31 07:31:06;;;;;;;4.28;3.35;;;666.20;1996.80;;;;;;4996249;28;20025;-78
2022/07/31 07:33:32;;;;;;;3.47;2.47;;;666.30;2022.40;;;;;;4978726;28;20046;-77
2022/07/31 07:35:58;;;;;;;6.38;3.05;;;666.40;1945.60;;;;;;4996193;28;20030;-80
2022/07/31 07:38:24;;;;;;;4.22;2.80;;;666.50;1971.20;;;;;;4996251;28;20432;-80
2022/07/31 07:40:50;;;;;;;4.68;2.50;;;666.50;1920.00;;;;;;4995935;28;20046;-78
2022/07/31 07:43:17;;;;;;;4.18;3.08;;;666.50;1920.00;;;;;;4978707;28;20053;-80
2022/07/31 07:45:43;;;;;;;7.78;3.25;;;691.20;1920.00;;;;;;4995861;28;20015;-77
2022/07/31 07:48:09;;;;;;;4.47;3.00;;;691.20;1920.00;;;;;;4996163;28;20021;-78
2022/07/31 07:50:35;;;;;;;8.50;2.97;;;691.30;1920.00;;;;;;4996040;28;20550;-78
2022/07/31 07:53:00;;;;;;;5.18;3.25;;;691.30;1894.40;;;;;;4995950;28;20022;-77
2022/07/31 07:55:26;;;;;;;6.57;3.22;;;691.40;1843.20;;;;;;4996022;28;20109;-78
2022/07/31 07:57:52;;;;;;;5.43;3.22;;;691.50;1766.40;;;;;;4995794;28;20030;-77
2022/07/31 08:00:18;;;;;;;4.20;2.70;;;691.40;1792.00;;;;;;4995759;28;20010;-79
2022/07/31 08:02:45;;;;;;;7.75;3.25;;;691.50;1817.60;;;;;;4995622;28;20361;-78
2022/07/31 08:05:11;;;;;;;5.43;3.38;;;691.60;1792.00;;;;;;4995704;28;20023;-78
2022/07/31 08:07:39;;;;;;;6.10;3.08;;;691.60;1766.40;;;;;;4978338;28;20053;-77
2022/07/31 08:10:05;;;;;;;15.70;7.25;;;691.70;1766.40;;;;;;4995581;28;20025;-79
2022/07/31 08:12:32;;;;;;;6.65;3.40;;;691.70;1766.40;;;;;;4995574;28;20480;-78
2022/07/31 08:14:58;;;;;;;6.45;2.63;;;691.60;1715.20;;;;;;4995434;28;20468;-78
2022/07/31 08:17:24;;;;;;;4.35;2.72;;;691.60;1715.20;;;;;;5009033;28;20037;-77
2022/07/31 08:19:50;;;;;;;8.38;3.05;;;691.70;1740.80;;;;;;5005442;28;20026;-76
2022/07/31 08:22:17;;;;;;;4.20;2.92;;;691.70;1715.20;;;;;;4998991;28;20096;-75
2022/07/31 08:24:43;;;;;;;5.50;3.00;;;691.70;1740.80;;;;;;4995408;28;20549;-76
2022/07/31 08:27:23;;;;;;;4.40;2.85;;;691.80;1766.40;;;;;;4995271;28;20109;-75
2022/07/31 08:29:54;;;;;;;9.13;3.67;;;691.90;1664.00;;;;;;4995225;28;20080;-76
2022/07/31 08:32:20;;;;;;;3.33;2.47;;;691.80;1638.40;;;;;;4994222;28;20026;-76
2022/07/31 08:34:46;;;;;;;3.10;2.30;;;691.90;1664.00;;;;;;4995151;28;20030;-75
2022/07/31 08:37:12;;;;;;;4.68;2.88;;;691.80;1664.00;;;;;;4995074;28;20030;-78
2022/07/31 08:39:38;;;;;;;5.20;2.90;;;691.90;1638.40;;;;;;4994907;28;20037;-75
2022/07/31 08:42:08;;;;;;;4.75;2.45;;;691.90;1689.60;;;;;;4995115;28;20019;-80
2022/07/31 08:44:39;;;;;;;5.00;2.90;;;691.90;1638.40;;;;;;4994989;28;20107;-78
2022/07/31 08:47:06;;;;;;;6.63;2.70;;;691.90;1638.40;;;;;;4994761;28;20113;-82
2022/07/31 08:49:38;;;;;;;4.30;2.90;;;691.90;1561.60;;;;;;4986859;28;20772;-75
2022/07/31 08:52:06;;;;;;;4.07;2.50;;;691.80;1587.20;;;;;;4985052;28;20037;-77
2022/07/31 08:54:34;;;;;;;6.15;2.60;;;691.90;1561.60;;;;;;4975934;28;20058;-75
2022/07/31 08:57:00;;;;;;;5.05;2.30;;;691.90;1561.60;;;;;;4987897;28;20476;-76
2022/07/31 08:59:26;;;;;;;4.45;2.70;;;691.90;1484.80;;;;;;4988228;28;20080;-75
2022/07/31 09:01:55;;;;;;;4.45;2.80;;;691.90;1484.80;;;;;;4985692;28;20030;-79
2022/07/31 09:04:22;;;;;;;6.80;2.40;;;692.00;1484.80;;;;;;5001330;28;20076;-78
2022/07/31 09:06:48;;;;;;;4.40;2.65;;;691.60;1459.20;;;;;;5003890;28;20014;-79
2022/07/31 09:09:16;;;;;;;3.20;2.20;;;692.10;1433.60;;;;;;5005002;28;20026;-77
2022/07/31 09:11:49;;;;;;;5.72;2.17;;;692.10;1408.00;;;;;;5003392;28;20599;-75
2022/07/31 09:14:28;;;;;;;3.50;2.42;;;716.80;1433.60;;;;;;5002903;28;20026;-75
2022/07/31 09:16:54;;;;;;;6.95;2.92;;;716.90;1408.00;;;;;;5002643;28;20017;-76
2022/07/31 09:19:21;;;;;;;3.28;2.08;;;;;;;;;;5004679;28;20101;-78
2022/07/31 09:21:47;;;;;;;7.88;2.70;;;717.10;1459.20;;;;;;5003836;28;20027;-74
2022/07/31 09:24:26;;;;;;;4.90;2.63;;;717.20;1459.20;;;;;;5003493;28;20033;-78
2022/07/31 09:27:00;;;;;;;6.30;2.28;;;717.20;1433.60;;;;;;5000879;28;20027;-75
2022/07/31 09:29:36;;;;;;;5.18;2.55;;;717.40;1408.00;;;;;;4984605;28;20035;-77
2022/07/31 09:32:19;;;;;;;4.65;2.50;;;717.50;1408.00;;;;;;5003199;28;20030;-76
2022/07/31 09:34:46;;;;;;;3.47;1.90;;;717.50;1408.00;;;;;;4985839;28;20061;-79
2022/07/31 09:37:15;;;;;;;4.75;2.40;;;717.70;1433.60;;;;;;5002539;28;20083;-77
2022/07/31 09:39:50;;;;;;;3.42;2.08;;;742.40;1459.20;;;;;;4986824;28;20042;-79
2022/07/31 09:42:16;;;;;;;3.30;2.30;;;742.50;1433.60;;;;;;4975671;28;20065;-76
2022/07/31 09:44:44;;;;;;;5.57;2.33;;;742.60;1433.60;;;;;;4988491;28;20046;-77
2022/07/31 09:47:25;;;;;;;3.20;1.65;;;742.80;1408.00;;;;;;4992682;28;20460;-80
2022/07/31 09:49:57;;;;;;;4.45;2.50;;;;;;;;;;4992728;28;20095;-81
2022/07/31 09:52:23;;;;;;;6.30;2.65;;;743.00;1382.40;;;;;;4993660;28;20022;-77
2022/07/31 09:54:59;;;;;;;4.38;2.25;;;743.00;1382.40;;;;;;4993910;28;20038;-83
2022/07/31 09:57:25;;;;;;;3.80;2.30;;;742.90;1382.40;;;;;;4976375;28;20069;-80
2022/07/31 09:59:50;;;;;;;4.55;2.22;;;743.00;1408.00;;;;;;4976267;28;20042;-82
2022/07/31 10:02:18;;;;;;;5.38;2.30;;;743.20;1382.40;;;;;;4993504;28;20468;-78
2022/07/31 10:04:47;;;;;;;8.35;2.40;;;768.10;1356.80;;;;;;4993441;28;20223;-77
2022/07/31 10:07:15;;;;;;;6.10;2.30;;;768.40;1331.20;;;;;;4993399;28;20073;-80
2022/07/31 10:09:42;;;;;;;3.58;2.42;;;743.30;1331.20;;;;;;4993513;28;20023;-75
2022/07/31 10:12:13;;;;;;;4.07;1.83;;;768.10;1331.20;;;;;;4992010;28;20101;-75
2022/07/31 10:14:42;;;;;;;3.20;1.95;;;768.30;1331.20;;;;;;4995671;28;20357;-74
2022/07/31 10:17:09;;;;;;;8.23;2.58;;;768.50;1305.60;;;;;;5003245;28;20609;-77
2022/07/31 10:19:38;;;;;;;4.13;1.88;;;768.20;1305.60;;;;;;5003531;28;20057;-78
2022/07/31 10:22:08;;;;;;;5.53;2.20;;;768.60;1305.60;;;;;;4996919;28;20023;-76
2022/07/31 10:24:42;;;;;;;3.58;1.95;;;768.10;1305.60;;;;;;5001843;28;20034;-85
2022/07/31 10:27:08;;;;;;;6.13;1.98;;;768.40;1331.20;;;;;;4983641;28;20070;-77
2022/07/31 10:29:37;;;;;;;9.75;3.33;;;768.90;1305.60;;;;;;4992957;28;20037;-80
2022/07/31 10:32:05;;;;;;;4.82;3.08;;;768.20;1305.60;;;;;;4976284;28;20023;-78
2022/07/31 10:34:32;;;;;;;3.00;2.28;;;768.30;1331.20;;;;;;4992764;28;20026;-78
2022/07/31 10:37:21;;;;;;;4.18;1.80;;;794.10;1280.00;;;;;;4992272;28;20033;-77
2022/07/31 10:40:02;;;;;;;3.50;1.75;;;819.20;1228.80;;;;;;4992146;28;20511;-77
2022/07/31 10:42:51;;;;;;;4.60;1.80;;;819.70;1203.20;;;;;;4974697;28;20023;-78
2022/07/31 10:45:17;;;;;;;2.60;1.40;;;819.60;1203.20;;;;;;4992320;28;20027;-77
2022/07/31 10:47:59;;;;;;;2.63;1.65;;;819.60;1177.60;;;;;;4992147;28;20368;-79
2022/07/31 10:50:29;;;;;;;4.32;2.05;;;844.80;1177.60;;;;;;4993203;28;20045;-79
2022/07/31 10:53:05;;;;;;;3.15;1.90;;;794.30;1203.20;;;;;;4993227;28;20081;-78
2022/07/31 10:55:34;;;;;;;4.60;1.80;;;819.30;1177.60;;;;;;4995717;28;20030;-81
2022/07/31 10:58:08;;;;;;;3.90;1.65;;;794.40;1203.20;;;;;;4996934;28;20038;-78
2022/07/31 11:00:34;;;;;;;5.45;2.17;;;819.90;1152.00;;;;;;4998497;28;20030;-76
2022/07/31 11:03:18;;;;;;;4.38;2.15;;;844.90;1152.00;;;;;;5003528;28;20022;-77
2022/07/31 11:05:58;;;;;;;3.67;1.88;;;845.10;1152.00;;;;;;5004405;28;20018;-79
2022/07/31 11:08:25;;;;;;;2.50;1.90;;;819.90;1126.40;;;;;;5006823;28;20022;-77
2022/07/31 11:10:52;;;;;;;4.35;2.83;;;819.60;1152.00;;;;;;5004700;28;20023;-77
2022/07/31 11:13:18;;;;;;;4.03;1.70;;;819.70;1152.00;;;;;;4986292;28;20112;-77
2022/07/31 11:15:45;;;;;;;6.05;1.95;;;819.80;1152.00;;;;;;5010038;28;20495;-76
2022/07/31 11:18:12;;;;;;;5.07;1.95;;;820.00;1126.40;;;;;;4982369;28;20489;-76
2022/07/31 11:20:38;;;;;;;3.40;1.80;;;819.30;1177.60;;;;;;4996267;28;20045;-77
2022/07/31 11:23:07;;;;;;;5.03;1.70;;;794.40;1203.20;;;;;;4997456;28;20030;-77
2022/07/31 11:25:35;;;;;;;2.42;1.77;;;794.10;1203.20;;;;;;4995957;28;20053;-78
2022/07/31 11:28:20;;;;;;;3.45;2.00;;;794.30;1228.80;;;;;;4996358;28;20468;-78
2022/07/31 11:30:55;;;;;;;6.50;1.70;;;819.40;1203.20;;;;;;4996127;28;20109;-77
2022/07/31 11:33:28;;;;;;;;;;;819.50;1203.20;;;;;;4999729;28;20419;-77
2022/07/31 11:35:56;;;;;;;4.28;2.38;;;819.60;1203.20;;;;;;5003415;28;19909;-77
2022/07/31 11:38:28;;;;;;;1.77;1.42;;;819.60;1203.20;;;;;;5005400;28;20034;-76
2022/07/31 11:40:56;;;;;;;5.75;2.35;;;819.70;1203.20;;;;;;5003273;28;20039;-77
2022/07/31 11:43:22;;;;;;;2.40;1.80;;;793.90;1228.80;;;;;;5005425;28;20026;-77
2022/07/31 11:45:51;;;;;;;3.28;1.80;;;793.70;1280.00;;;;;;4987057;28;20368;-76
2022/07/31 11:48:21;;;;;;;2.17;1.60;;;793.70;1280.00;;;;;;5008477;28;20121;-77
2022/07/31 11:50:51;;;;;;;3.65;1.95;;;768.90;1254.40;;;;;;5008034;28;20031;-77
2022/07/31 11:53:18;;;;;;;2.80;1.65;;;768.40;1280.00;;;;;;5003876;28;20053;-76
2022/07/31 11:55:53;;;;;;;2.92;1.50;;;768.90;1280.00;;;;;;5005577;28;20400;-78
2022/07/31 11:58:20;;;;;;;4.13;2.30;;;768.90;1280.00;;;;;;4986620;28;20455;-78
2022/07/31 12:00:48;;;;;;;8.15;3.22;;;768.30;1280.00;;;;;;5004996;28;20022;-80
2022/07/31 12:03:19;;;;;;;6.47;3.95;;;743.30;1331.20;;;;;;5004481;28;20030;-78
2022/07/31 12:05:51;;;;;;;5.80;2.17;;;768.50;1280.00;;;;;;4966867;28;20057;-76
2022/07/31 12:08:17;;;;;;;6.18;1.60;;;768.90;1254.40;;;;;;4986621;28;20030;-78
2022/07/31 12:10:44;;;;;;;4.38;1.50;;;793.80;1280.00;;;;;;4985350;28;20491;-77
2022/07/31 12:13:20;;;;;;;2.90;1.60;;;794.20;1228.80;;;;;;4994558;28;20065;-77
2022/07/31 12:16:32;;;;;;;11.05;1.85;;;794.10;1228.80;;;;;;5001463;28;20376;-76
2022/07/31 12:19:18;;;;;;;4.53;1.35;;;794.30;1254.40;;;;;;4963500;28;20524;-78
2022/07/31 12:22:05;;;;;;;4.97;1.50;;;793.90;1254.40;;;;;;4999958;28;20026;-75
2022/07/31 12:24:34;;;;;;;4.18;1.88;;;768.80;1254.40;;;;;;4994779;28;20042;-76